Time;durP1;ratioP1;P1;durP2;ratioP2;P2;SDS_P1;SDS_P2;PMS_P1;PMS_P2;Temp;Humidity;BMP_temperature;BMP_pressure;BME280_temperature;BME280_humidity;BME280_pressure;Samples;Min_cycle;Max_cycle;Signal;HPM_P1;HPM_P2
2021/07/30 00:00:56;;;;;;;1.03;0.50;;;16.00;99.90;;;;;;5073082;28;20885;-81
2021/07/30 00:03:23;;;;;;;1.10;1.10;;;15.90;99.90;;;;;;5073421;28;20826;-81
2021/07/30 00:05:52;;;;;;;0.50;0.50;;;15.90;99.90;;;;;;5073547;28;20477;-81
2021/07/30 00:08:19;;;;;;;0.77;0.77;;;15.90;99.90;;;;;;5073429;28;20449;-81
2021/07/30 00:10:46;;;;;;;0.70;0.70;;;15.80;99.90;;;;;;5072992;28;20838;-81
2021/07/30 00:13:12;;;;;;;1.03;0.87;;;15.80;99.90;;;;;;5073513;28;20453;-81
2021/07/30 00:15:39;;;;;;;0.63;0.63;;;15.80;99.90;;;;;;5074062;28;20433;-81
2021/07/30 00:18:06;;;;;;;1.13;1.10;;;15.70;99.90;;;;;;5073674;28;20787;-81
2021/07/30 00:20:33;;;;;;;0.67;0.67;;;15.70;99.90;;;;;;5073492;28;20480;-82
2021/07/30 00:23:01;;;;;;;0.70;0.70;;;15.70;99.90;;;;;;5077463;28;20445;-82
2021/07/30 00:25:28;;;;;;;1.37;0.70;;;15.70;99.90;;;;;;5077189;28;20831;-82
2021/07/30 00:27:55;;;;;;;2.10;1.37;;;15.60;99.90;;;;;;5077356;28;20444;-82
2021/07/30 00:30:21;;;;;;;1.07;0.70;;;15.60;99.90;;;;;;5077228;28;20469;-82
2021/07/30 00:32:48;;;;;;;1.23;0.80;;;15.60;99.90;;;;;;5077256;28;20456;-81
2021/07/30 00:35:15;;;;;;;0.60;0.60;;;15.60;99.90;;;;;;5077152;28;20444;-81
2021/07/30 00:37:42;;;;;;;1.80;0.70;;;15.50;99.90;;;;;;5076766;28;20436;-83
2021/07/30 00:40:11;;;;;;;1.60;1.00;;;15.50;99.90;;;;;;5077055;28;20468;-82
2021/07/30 00:42:49;;;;;;;1.07;1.07;;;15.50;99.90;;;;;;5077267;28;20804;-82
2021/07/30 00:45:15;;;;;;;0.70;0.70;;;15.50;99.90;;;;;;5076679;28;20465;-82
2021/07/30 00:47:42;;;;;;;5.13;1.10;;;15.50;99.90;;;;;;5076963;28;20459;-82
2021/07/30 00:50:10;;;;;;;2.60;1.00;;;15.50;99.90;;;;;;5076549;28;20475;-82
2021/07/30 00:52:37;;;;;;;2.07;1.70;;;15.50;99.90;;;;;;5076794;28;20449;-81
2021/07/30 00:55:04;;;;;;;1.23;1.10;;;15.50;99.90;;;;;;5076805;28;20448;-82
2021/07/30 00:57:32;;;;;;;1.37;0.90;;;15.40;99.90;;;;;;5076778;28;20449;-81
2021/07/30 00:59:59;;;;;;;1.57;0.70;;;15.50;99.90;;;;;;5076904;28;20476;-82
2021/07/30 01:02:27;;;;;;;1.83;0.93;;;15.30;99.90;;;;;;5076340;28;20986;-82
2021/07/30 01:04:54;;;;;;;1.37;0.93;;;15.30;99.90;;;;;;5076217;28;20480;-82
2021/07/30 01:07:21;;;;;;;2.13;0.80;;;15.30;99.90;;;;;;5076544;28;20456;-81
2021/07/30 01:09:48;;;;;;;3.07;1.00;;;15.30;99.90;;;;;;5076458;28;20480;-81
2021/07/30 01:12:16;;;;;;;1.13;0.90;;;15.20;99.90;;;;;;5076165;28;20965;-82
2021/07/30 01:14:44;;;;;;;0.60;0.60;;;15.20;99.90;;;;;;5076297;28;20813;-82
2021/07/30 01:17:11;;;;;;;2.10;0.90;;;15.20;99.90;;;;;;5076100;28;20455;-81
2021/07/30 01:19:38;;;;;;;0.97;0.73;;;15.20;99.90;;;;;;5076288;28;20429;-82
2021/07/30 01:22:23;;;;;;;1.60;0.83;;;15.20;99.90;;;;;;5076043;28;20437;-81
2021/07/30 01:24:52;;;;;;;1.47;0.63;;;15.20;99.90;;;;;;5076189;28;20510;-81
2021/07/30 01:27:19;;;;;;;0.93;0.70;;;15.20;99.90;;;;;;5076218;28;20451;-81
2021/07/30 01:29:46;;;;;;;0.80;0.80;;;15.20;99.90;;;;;;5076100;28;20468;-81
2021/07/30 01:32:13;;;;;;;1.70;1.20;;;15.10;99.90;;;;;;5076125;28;20433;-81
2021/07/30 01:34:40;;;;;;;2.10;0.80;;;15.10;99.90;;;;;;5076094;28;20445;-81
2021/07/30 01:37:06;;;;;;;0.90;0.67;;;15.00;99.90;;;;;;5075735;28;20451;-81
2021/07/30 01:39:34;;;;;;;0.90;0.60;;;15.00;99.90;;;;;;5075549;28;20476;-82
2021/07/30 01:42:02;;;;;;;0.60;0.60;;;15.00;99.90;;;;;;5075935;28;20460;-81
2021/07/30 01:44:29;;;;;;;0.83;0.83;;;14.90;99.90;;;;;;5075908;28;20449;-82
2021/07/30 01:46:56;;;;;;;1.00;0.67;;;14.90;99.90;;;;;;5075822;28;20481;-81
2021/07/30 01:49:23;;;;;;;0.60;0.60;;;14.90;99.90;;;;;;5075779;28;20449;-81
2021/07/30 01:51:50;;;;;;;2.23;1.40;;;14.90;99.90;;;;;;5076085;28;20445;-81
2021/07/30 01:54:18;;;;;;;1.47;0.87;;;14.80;99.90;;;;;;5075731;28;20445;-81
2021/07/30 01:56:44;;;;;;;0.50;0.43;;;14.80;99.90;;;;;;5075716;28;20814;-81
2021/07/30 01:59:13;;;;;;;0.70;0.70;;;14.80;99.90;;;;;;5075521;28;20974;-81
2021/07/30 02:01:39;;;;;;;0.73;0.70;;;14.80;99.90;;;;;;5075547;28;20460;-81
2021/07/30 02:04:06;;;;;;;0.70;0.70;;;14.80;99.90;;;;;;5075616;28;20433;-81
2021/07/30 02:06:33;;;;;;;0.47;0.40;;;14.80;99.90;;;;;;5075681;28;20484;-82
2021/07/30 02:09:00;;;;;;;1.57;1.10;;;14.70;99.90;;;;;;5075628;28;20474;-81
2021/07/30 02:11:27;;;;;;;1.00;0.60;;;14.70;99.90;;;;;;5075358;28;20469;-81
2021/07/30 02:16:40;;;;;;;0.67;0.67;;;14.70;99.90;;;;;;5075380;28;20489;-82
2021/07/30 02:19:07;;;;;;;0.80;0.60;;;14.60;99.90;;;;;;5075248;28;20429;-81
2021/07/30 02:21:33;;;;;;;0.80;0.80;;;14.60;99.90;;;;;;5074944;28;20466;-81
2021/07/30 02:24:00;;;;;;;1.13;0.80;;;14.60;99.90;;;;;;5075110;28;20445;-81
2021/07/30 02:26:27;;;;;;;0.50;0.50;;;14.60;99.90;;;;;;5075028;28;20484;-81
2021/07/30 02:28:56;;;;;;;0.70;0.67;;;14.60;99.90;;;;;;5074787;28;20452;-82
2021/07/30 02:31:23;;;;;;;1.00;1.00;;;14.60;99.90;;;;;;5075861;28;20468;-82
2021/07/30 02:33:51;;;;;;;1.57;0.90;;;14.60;99.90;;;;;;5075130;28;20463;-82
2021/07/30 02:36:18;;;;;;;0.70;0.70;;;14.60;99.90;;;;;;5074932;28;20441;-82
2021/07/30 02:38:45;;;;;;;1.77;1.00;;;14.60;99.90;;;;;;5074485;28;20495;-82
2021/07/30 02:41:12;;;;;;;1.40;0.50;;;14.60;99.90;;;;;;5074760;28;20472;-82
2021/07/30 02:43:39;;;;;;;0.40;0.40;;;14.50;99.90;;;;;;5074226;28;20452;-82
2021/07/30 02:46:06;;;;;;;0.80;0.50;;;14.50;99.90;;;;;;5074645;28;20481;-82
2021/07/30 02:48:33;;;;;;;1.03;0.60;;;14.50;99.90;;;;;;5074353;28;20815;-82
2021/07/30 02:51:01;;;;;;;0.77;0.57;;;14.40;99.90;;;;;;5074232;28;20476;-82
2021/07/30 02:53:28;;;;;;;1.47;0.87;;;14.40;99.90;;;;;;5074572;28;20452;-82
2021/07/30 02:55:55;;;;;;;0.57;0.57;;;14.40;99.90;;;;;;5074542;28;20448;-82
2021/07/30 02:58:22;;;;;;;1.13;0.57;;;14.40;99.90;;;;;;5074734;28;20445;-82
2021/07/30 03:00:49;;;;;;;1.60;0.50;;;14.40;99.90;;;;;;5074230;28;20464;-82
2021/07/30 03:03:15;;;;;;;0.70;0.70;;;14.40;99.90;;;;;;5074344;28;20453;-82
2021/07/30 03:05:42;;;;;;;0.60;0.60;;;14.40;99.90;;;;;;5073909;28;21007;-81
2021/07/30 03:08:10;;;;;;;0.60;0.60;;;14.40;99.90;;;;;;5074272;28;20452;-82
2021/07/30 03:10:37;;;;;;;0.87;0.60;;;14.40;99.90;;;;;;5074143;28;20456;-82
2021/07/30 03:13:04;;;;;;;1.40;0.80;;;14.40;99.90;;;;;;5074181;28;20448;-82
2021/07/30 03:15:30;;;;;;;1.80;0.60;;;14.30;99.90;;;;;;5073832;28;20816;-82
2021/07/30 03:17:57;;;;;;;0.60;0.60;;;14.40;99.90;;;;;;5073772;28;20452;-82
2021/07/30 03:20:24;;;;;;;1.40;0.83;;;14.40;99.90;;;;;;5073705;28;20460;-82
2021/07/30 03:22:51;;;;;;;0.40;0.40;;;14.30;99.90;;;;;;5073768;28;20440;-82
2021/07/30 03:25:19;;;;;;;0.70;0.70;;;14.30;99.90;;;;;;5073662;28;20452;-82
2021/07/30 03:27:46;;;;;;;1.60;1.40;;;14.30;99.90;;;;;;5073597;28;20975;-81
2021/07/30 03:30:15;;;;;;;2.00;1.03;;;14.30;99.90;;;;;;5073784;28;20469;-82
2021/07/30 03:32:42;;;;;;;1.07;1.03;;;14.30;99.90;;;;;;5073877;28;20457;-81
2021/07/30 03:35:09;;;;;;;1.63;0.50;;;14.20;99.90;;;;;;5073673;28;20448;-82
2021/07/30 03:37:36;;;;;;;1.30;0.63;;;14.20;99.90;;;;;;5073507;28;20448;-80
2021/07/30 03:40:03;;;;;;;0.80;0.80;;;14.30;99.90;;;;;;5073260;28;20555;-80
2021/07/30 03:42:31;;;;;;;0.80;0.63;;;14.30;99.90;;;;;;5073425;28;20445;-80
2021/07/30 03:44:58;;;;;;;0.80;0.80;;;14.30;99.90;;;;;;5073705;28;20449;-80
2021/07/30 03:47:25;;;;;;;0.50;0.50;;;14.30;99.90;;;;;;5073571;28;20565;-80
2021/07/30 03:49:52;;;;;;;0.80;0.43;;;14.30;99.90;;;;;;5073348;28;20456;-80
2021/07/30 03:52:19;;;;;;;1.33;0.60;;;14.20;99.90;;;;;;5073584;28;20449;-80
2021/07/30 03:54:46;;;;;;;1.37;0.70;;;14.20;99.90;;;;;;5073491;28;20449;-80
2021/07/30 03:57:13;;;;;;;1.23;0.80;;;14.20;99.90;;;;;;5072815;28;20456;-80
2021/07/30 03:59:41;;;;;;;1.10;0.77;;;14.20;99.90;;;;;;5073452;28;20441;-80
2021/07/30 04:02:08;;;;;;;0.67;0.67;;;14.20;99.90;;;;;;5073466;28;20445;-80
2021/07/30 04:04:35;;;;;;;0.43;0.43;;;14.20;99.90;;;;;;5073455;28;20444;-80
2021/07/30 04:07:02;;;;;;;2.17;0.80;;;14.20;99.90;;;;;;5073210;28;20476;-80
2021/07/30 04:09:28;;;;;;;0.60;0.60;;;14.20;99.90;;;;;;5073345;28;20444;-80
2021/07/30 04:11:55;;;;;;;1.03;0.60;;;14.20;99.90;;;;;;5073075;28;21126;-80
2021/07/30 04:14:22;;;;;;;1.83;0.80;;;14.20;99.90;;;;;;5073096;28;20433;-80
2021/07/30 04:16:50;;;;;;;1.37;1.00;;;14.20;99.90;;;;;;5073328;28;20448;-80
2021/07/30 04:19:17;;;;;;;1.27;0.87;;;14.20;99.90;;;;;;5073001;28;20960;-80
2021/07/30 04:21:43;;;;;;;0.80;0.60;;;14.20;99.90;;;;;;5073179;28;20456;-80
2021/07/30 04:24:10;;;;;;;0.83;0.80;;;14.20;99.90;;;;;;5073271;28;20456;-80
2021/07/30 04:26:37;;;;;;;2.10;0.60;;;14.20;99.90;;;;;;5072963;28;20875;-80
2021/07/30 04:29:04;;;;;;;1.63;0.70;;;14.20;99.90;;;;;;5073462;28;20452;-80
2021/07/30 04:31:31;;;;;;;1.63;0.70;;;14.20;99.90;;;;;;5072914;28;20457;-80
2021/07/30 04:33:59;;;;;;;0.67;0.67;;;14.20;99.90;;;;;;5073160;28;20449;-80
2021/07/30 04:36:25;;;;;;;0.60;0.60;;;14.20;99.90;;;;;;5073142;28;20449;-80
2021/07/30 04:38:52;;;;;;;0.70;0.70;;;14.30;99.90;;;;;;5072929;28;20483;-80
2021/07/30 04:41:19;;;;;;;2.13;0.60;;;14.30;99.90;;;;;;5073056;28;20472;-80
2021/07/30 04:43:46;;;;;;;4.20;0.70;;;14.30;99.90;;;;;;5073050;28;20460;-80
2021/07/30 04:46:16;;;;;;;1.37;0.70;;;14.40;99.90;;;;;;5072758;28;20495;-80
2021/07/30 04:48:43;;;;;;;0.50;0.40;;;14.40;99.90;;;;;;5072726;28;20448;-80
2021/07/30 04:51:12;;;;;;;1.00;0.70;;;14.40;99.90;;;;;;5072903;28;20461;-80
2021/07/30 04:53:39;;;;;;;0.80;0.80;;;14.50;99.90;;;;;;5073244;28;20816;-79
2021/07/30 04:56:06;;;;;;;1.37;0.70;;;14.50;99.90;;;;;;5073237;28;20437;-80
2021/07/30 04:58:33;;;;;;;0.77;0.77;;;14.50;99.90;;;;;;5072934;28;20448;-80
2021/07/30 05:01:04;;;;;;;0.70;0.70;;;14.60;99.90;;;;;;5072503;28;20837;-80
2021/07/30 05:03:31;;;;;;;0.80;0.80;;;14.60;99.90;;;;;;5072699;28;20823;-80
2021/07/30 05:05:57;;;;;;;1.00;0.70;;;14.70;99.90;;;;;;5072772;28;20496;-80
2021/07/30 05:08:26;;;;;;;0.80;0.80;;;14.70;99.90;;;;;;5075730;28;20500;-80
2021/07/30 05:10:52;;;;;;;0.97;0.80;;;14.70;99.90;;;;;;5076456;28;20460;-80
2021/07/30 05:13:20;;;;;;;1.00;0.67;;;14.70;99.90;;;;;;5076212;28;20440;-80
2021/07/30 05:15:47;;;;;;;0.73;0.73;;;14.70;99.90;;;;;;5076421;28;20444;-80
2021/07/30 05:18:13;;;;;;;2.73;1.00;;;14.80;99.90;;;;;;5076131;28;20447;-80
2021/07/30 05:20:41;;;;;;;1.00;0.70;;;14.90;99.90;;;;;;5076012;28;20980;-80
2021/07/30 05:23:08;;;;;;;0.90;0.60;;;14.90;99.90;;;;;;5076353;28;20543;-80
2021/07/30 05:25:36;;;;;;;0.90;0.87;;;15.00;99.90;;;;;;5076265;28;20445;-79
2021/07/30 05:28:03;;;;;;;1.00;0.90;;;15.00;99.90;;;;;;5075933;28;20476;-80
2021/07/30 05:30:31;;;;;;;0.50;0.47;;;15.10;99.90;;;;;;5075841;28;20468;-80
2021/07/30 05:32:58;;;;;;;1.60;0.90;;;15.10;99.90;;;;;;5076103;28;20912;-80
2021/07/30 05:35:24;;;;;;;1.80;0.80;;;15.20;99.90;;;;;;5075812;28;20448;-80
2021/07/30 05:37:51;;;;;;;0.50;0.50;;;15.20;99.90;;;;;;5075662;28;20433;-80
2021/07/30 05:40:18;;;;;;;0.60;0.60;;;15.20;99.90;;;;;;5076035;28;20456;-80
2021/07/30 05:42:46;;;;;;;1.63;1.00;;;15.30;99.90;;;;;;5076001;28;20448;-80
2021/07/30 05:45:13;;;;;;;0.90;0.90;;;15.30;99.90;;;;;;5075897;28;20452;-80
2021/07/30 05:47:40;;;;;;;7.33;0.97;;;15.30;99.90;;;;;;5075864;28;20480;-80
2021/07/30 05:50:07;;;;;;;1.57;0.80;;;15.40;99.90;;;;;;5075578;28;20817;-80
2021/07/30 05:52:34;;;;;;;0.93;0.60;;;15.50;99.90;;;;;;5075989;28;20445;-80
2021/07/30 05:55:01;;;;;;;0.80;0.70;;;15.50;99.90;;;;;;5075767;28;20551;-80
2021/07/30 05:57:28;;;;;;;1.47;1.00;;;15.60;99.90;;;;;;5075389;28;20449;-80
2021/07/30 05:59:56;;;;;;;0.90;0.90;;;15.70;99.90;;;;;;5075602;28;20461;-80
2021/07/30 06:02:22;;;;;;;1.07;0.83;;;15.80;99.90;;;;;;5075639;28;20445;-80
2021/07/30 06:04:50;;;;;;;0.73;0.73;;;15.90;99.90;;;;;;5075551;28;20452;-80
2021/07/30 06:07:17;;;;;;;0.73;0.67;;;16.00;99.90;;;;;;5075237;28;20480;-79
2021/07/30 06:09:43;;;;;;;1.50;0.63;;;16.10;99.90;;;;;;5075429;28;20453;-79
2021/07/30 06:12:10;;;;;;;3.40;0.70;;;16.20;99.90;;;;;;5075193;28;20434;-79
2021/07/30 06:14:37;;;;;;;1.20;0.97;;;16.30;99.90;;;;;;5075541;28;20453;-79
2021/07/30 06:17:05;;;;;;;0.90;0.77;;;16.50;99.90;;;;;;5075315;28;20448;-79
2021/07/30 06:19:32;;;;;;;0.60;0.60;;;16.70;99.90;;;;;;5074454;28;20453;-79
2021/07/30 06:21:59;;;;;;;0.70;0.53;;;16.80;99.90;;;;;;5074966;28;20440;-79
2021/07/30 06:24:26;;;;;;;1.80;0.90;;;17.00;99.90;;;;;;5075119;28;20460;-79
2021/07/30 06:26:53;;;;;;;1.47;0.90;;;17.10;99.90;;;;;;5074754;28;20852;-79
2021/07/30 06:29:19;;;;;;;0.60;0.60;;;17.20;99.90;;;;;;5075092;28;20457;-79
2021/07/30 06:31:46;;;;;;;1.10;1.00;;;17.40;99.90;;;;;;5074857;28;20984;-79
2021/07/30 06:34:14;;;;;;;1.33;0.87;;;17.50;99.90;;;;;;5074947;28;20459;-79
2021/07/30 06:36:41;;;;;;;0.80;0.80;;;17.70;99.90;;;;;;5074949;28;20448;-79
2021/07/30 06:39:08;;;;;;;0.70;0.70;;;17.80;99.90;;;;;;5074489;28;20487;-79
2021/07/30 06:41:34;;;;;;;1.07;0.80;;;18.00;99.90;;;;;;5074462;28;20827;-79
2021/07/30 06:44:01;;;;;;;2.60;1.37;;;18.20;99.90;;;;;;5074784;28;20452;-79
2021/07/30 06:46:28;;;;;;;1.07;0.97;;;18.30;99.90;;;;;;5074790;28;20492;-80
2021/07/30 06:48:54;;;;;;;0.93;0.60;;;18.40;99.90;;;;;;5074713;28;20433;-80
2021/07/30 06:51:23;;;;;;;2.50;0.90;;;18.50;99.90;;;;;;5074263;28;20469;-80
2021/07/30 06:53:49;;;;;;;1.47;1.33;;;18.70;99.90;;;;;;5075312;28;20445;-80
2021/07/30 06:56:16;;;;;;;1.97;1.20;;;18.80;99.90;;;;;;5074971;28;20464;-80
2021/07/30 06:58:44;;;;;;;1.17;1.13;;;18.90;99.90;;;;;;5074508;28;20429;-80
2021/07/30 07:01:11;;;;;;;1.47;1.37;;;19.00;99.90;;;;;;5074559;28;20903;-80
2021/07/30 07:03:38;;;;;;;1.97;1.17;;;19.10;99.90;;;;;;5074400;28;20433;-79
2021/07/30 07:06:04;;;;;;;1.40;1.30;;;19.20;99.90;;;;;;5074396;28;20433;-80
2021/07/30 07:08:32;;;;;;;1.53;1.43;;;19.40;99.90;;;;;;5074247;28;20460;-80
2021/07/30 07:11:02;;;;;;;1.60;1.40;;;19.50;99.90;;;;;;5073920;28;20469;-80
2021/07/30 07:13:29;;;;;;;2.87;1.23;;;19.60;99.90;;;;;;5074249;28;20429;-80
2021/07/30 07:15:56;;;;;;;1.03;0.83;;;19.60;99.90;;;;;;5074200;28;20441;-80
2021/07/30 07:18:23;;;;;;;0.70;0.70;;;19.70;99.90;;;;;;5073834;28;20437;-80
2021/07/30 07:20:55;;;;;;;2.00;0.93;;;19.70;99.90;;;;;;5074004;28;20467;-80
2021/07/30 07:23:22;;;;;;;1.03;0.93;;;19.80;99.90;;;;;;5074081;28;20442;-80
2021/07/30 07:25:50;;;;;;;1.10;1.00;;;19.90;99.90;;;;;;5073991;28;20451;-80
2021/07/30 07:28:17;;;;;;;1.63;1.53;;;20.10;99.90;;;;;;5073879;28;20477;-78
2021/07/30 07:30:43;;;;;;;0.97;0.93;;;20.20;99.90;;;;;;5073774;28;20464;-79
2021/07/30 07:33:10;;;;;;;1.43;0.80;;;20.30;99.90;;;;;;5073909;28;20444;-79
2021/07/30 07:35:37;;;;;;;1.43;1.00;;;20.50;99.90;;;;;;5073866;28;20840;-80
2021/07/30 07:38:05;;;;;;;1.10;1.00;;;20.60;99.90;;;;;;5073647;28;20986;-79
2021/07/30 07:40:32;;;;;;;0.87;0.70;;;20.70;99.90;;;;;;5073757;28;20471;-80
2021/07/30 07:43:02;;;;;;;1.20;1.10;;;20.80;99.90;;;;;;5073552;28;20413;-80
2021/07/30 07:45:28;;;;;;;3.00;1.37;;;21.00;99.90;;;;;;5073396;28;20452;-80
2021/07/30 07:47:55;;;;;;;1.10;0.70;;;21.20;99.90;;;;;;5073354;28;21001;-79
2021/07/30 07:50:22;;;;;;;1.10;1.00;;;21.30;99.90;;;;;;5073662;28;20472;-80
2021/07/30 07:52:49;;;;;;;1.23;0.93;;;21.50;99.90;;;;;;5073589;28;20440;-80
2021/07/30 07:55:16;;;;;;;1.43;1.00;;;21.70;99.90;;;;;;5073609;28;20444;-79
2021/07/30 07:57:43;;;;;;;3.80;1.33;;;21.90;99.90;;;;;;5073239;28;20484;-80
2021/07/30 08:00:12;;;;;;;1.27;1.17;;;22.10;99.90;;;;;;5073685;28;20547;-80
2021/07/30 08:02:39;;;;;;;0.80;0.80;;;22.40;99.90;;;;;;5073507;28;20456;-80
2021/07/30 08:05:07;;;;;;;0.95;0.80;;;22.70;99.90;;;;;;5073515;28;20198;-80
2021/07/30 08:07:34;;;;;;;1.17;1.08;;;22.90;99.90;;;;;;5073037;28;20214;-80
2021/07/30 08:10:01;;;;;;;3.05;1.00;;;23.00;99.90;;;;;;5073029;28;20735;-79
2021/07/30 08:12:27;;;;;;;0.63;0.55;;;23.20;99.90;;;;;;5073081;28;20684;-79
2021/07/30 08:14:54;;;;;;;1.00;0.80;;;23.30;99.90;;;;;;5073358;28;20198;-80
2021/07/30 08:17:22;;;;;;;1.23;1.05;;;23.30;99.90;;;;;;5073114;28;20684;-80
2021/07/30 08:19:51;;;;;;;1.30;1.20;;;23.30;99.90;;;;;;5073259;28;20225;-79
2021/07/30 08:22:18;;;;;;;1.67;1.20;;;23.30;99.90;;;;;;5073003;28;20202;-80
2021/07/30 08:24:44;;;;;;;0.95;0.77;;;23.40;99.90;;;;;;5073274;28;20206;-80
2021/07/30 08:27:13;;;;;;;0.52;0.50;;;23.50;99.90;;;;;;5073226;28;20207;-80
2021/07/30 08:29:41;;;;;;;0.80;0.70;;;23.50;99.90;;;;;;5073462;28;20244;-80
2021/07/30 08:32:09;;;;;;;1.08;0.90;;;23.70;99.90;;;;;;5073280;28;20217;-80
2021/07/30 08:34:38;;;;;;;0.80;0.80;;;23.80;99.90;;;;;;5073236;28;20183;-80
2021/07/30 08:37:04;;;;;;;1.08;0.90;;;23.70;99.90;;;;;;5072965;28;20186;-80
2021/07/30 08:39:31;;;;;;;0.60;0.60;;;23.70;99.90;;;;;;5072667;28;20236;-80
2021/07/30 08:42:00;;;;;;;0.60;0.60;;;23.70;99.90;;;;;;5073850;28;20189;-80
2021/07/30 08:44:27;;;;;;;0.98;0.80;;;23.80;99.90;;;;;;5077144;28;20190;-80
2021/07/30 08:46:55;;;;;;;1.08;0.77;;;23.80;99.90;;;;;;5077031;28;20533;-80
2021/07/30 08:49:22;;;;;;;0.82;0.70;;;23.80;99.90;;;;;;5076806;28;20185;-80
2021/07/30 08:51:52;;;;;;;1.05;1.05;;;23.90;99.90;;;;;;5076937;28;20229;-82
2021/07/30 08:54:18;;;;;;;0.82;0.65;;;23.90;99.90;;;;;;5076693;28;20194;-80
2021/07/30 08:56:45;;;;;;;0.60;0.50;;;24.00;99.90;;;;;;5076931;28;20196;-79
2021/07/30 08:59:12;;;;;;;1.15;1.05;;;24.00;99.90;;;;;;5076838;28;20269;-80
2021/07/30 09:01:39;;;;;;;1.40;0.90;;;24.10;99.90;;;;;;5076427;28;20217;-80
2021/07/30 09:04:05;;;;;;;1.08;0.98;;;24.20;99.90;;;;;;5076431;28;20560;-80
2021/07/30 09:06:32;;;;;;;1.95;0.63;;;24.30;99.90;;;;;;5076401;28;20555;-80
2021/07/30 09:09:11;;;;;;;1.55;0.88;;;24.30;99.90;;;;;;5076820;28;20292;-80
2021/07/30 09:11:39;;;;;;;1.08;0.88;;;24.40;99.90;;;;;;5076557;28;20221;-80
2021/07/30 09:14:07;;;;;;;3.90;0.80;;;24.50;99.90;;;;;;5076600;28;20190;-82
2021/07/30 09:16:47;;;;;;;0.95;0.77;;;24.60;99.90;;;;;;5076319;28;20186;-80
2021/07/30 09:19:15;;;;;;;0.88;0.63;;;24.70;99.90;;;;;;5077055;28;20178;-80
2021/07/30 09:21:41;;;;;;;2.95;1.27;;;24.90;99.90;;;;;;5076115;28;20218;-80
2021/07/30 09:24:11;;;;;;;1.10;1.00;;;25.00;99.90;;;;;;5076430;28;20191;-80
2021/07/30 09:26:42;;;;;;;1.00;0.70;;;25.00;99.90;;;;;;5076380;28;20194;-80
2021/07/30 09:29:14;;;;;;;1.55;0.80;;;25.20;99.90;;;;;;5075933;28;20685;-81
2021/07/30 09:31:44;;;;;;;0.98;0.80;;;25.20;99.90;;;;;;5076177;28;20218;-80
2021/07/30 09:34:22;;;;;;;1.00;0.82;;;25.20;99.90;;;;;;5075977;28;20190;-81
2021/07/30 09:36:52;;;;;;;0.82;0.82;;;25.20;99.90;;;;;;5075891;28;20186;-80
2021/07/30 09:39:21;;;;;;;1.60;1.25;;;25.40;99.90;;;;;;5075921;28;20245;-80
2021/07/30 09:41:59;;;;;;;0.93;0.93;;;25.50;99.90;;;;;;5076014;28;20627;-80
2021/07/30 09:44:26;;;;;;;1.05;0.60;;;25.60;99.90;;;;;;5076036;28;20609;-80
2021/07/30 09:47:04;;;;;;;0.82;0.80;;;25.60;99.90;;;;;;5076124;28;20189;-79
2021/07/30 09:49:46;;;;;;;0.82;0.80;;;25.60;99.90;;;;;;5075864;28;20213;-80
2021/07/30 09:52:15;;;;;;;1.52;1.02;;;25.60;99.90;;;;;;5075904;28;20182;-81
2021/07/30 09:54:46;;;;;;;1.13;0.93;;;25.80;99.90;;;;;;5074204;28;20193;-80
2021/07/30 09:57:15;;;;;;;1.15;0.85;;;25.90;99.90;;;;;;5075824;28;20190;-80
2021/07/30 09:59:43;;;;;;;1.80;0.90;;;26.00;99.90;;;;;;5075726;28;20190;-80
2021/07/30 10:02:13;;;;;;;1.02;1.00;;;26.10;99.90;;;;;;5075718;28;20209;-80
2021/07/30 10:04:44;;;;;;;0.65;0.60;;;26.20;99.90;;;;;;5075435;28;20622;-80
2021/07/30 10:07:13;;;;;;;1.35;1.00;;;26.40;99.90;;;;;;5075600;28;20186;-79
2021/07/30 10:09:47;;;;;;;1.23;1.13;;;26.80;99.90;;;;;;5075457;28;20186;-81
2021/07/30 10:12:14;;;;;;;1.25;1.15;;;27.20;99.90;;;;;;5075249;28;20638;-81
2021/07/30 10:14:43;;;;;;;1.15;1.00;;;27.50;99.90;;;;;;5075990;28;20218;-80
2021/07/30 10:17:13;;;;;;;1.55;0.88;;;27.60;99.90;;;;;;5075463;28;20580;-80
2021/07/30 10:19:41;;;;;;;2.10;1.40;;;27.80;99.90;;;;;;5075278;28;20189;-79
2021/07/30 10:22:13;;;;;;;0.70;0.70;;;27.80;99.90;;;;;;5075335;28;20194;-79
2021/07/30 10:24:55;;;;;;;3.20;1.08;;;27.90;99.90;;;;;;5075505;28;20203;-79
2021/07/30 10:27:25;;;;;;;0.85;0.85;;;27.80;99.90;;;;;;5075361;28;20190;-81
2021/07/30 10:30:10;;;;;;;0.77;0.77;;;27.80;99.90;;;;;;5075157;28;20244;-80
2021/07/30 10:32:54;;;;;;;3.25;0.90;;;27.90;99.90;;;;;;5075094;28;20187;-80
2021/07/30 10:35:46;;;;;;;0.93;0.80;;;28.20;99.90;;;;;;5075212;28;20233;-79
2021/07/30 10:38:15;;;;;;;1.20;1.10;;;28.70;99.90;;;;;;5074666;28;20624;-79
2021/07/30 10:40:44;;;;;;;1.38;1.00;;;29.00;99.90;;;;;;5074827;28;20229;-79
2021/07/30 10:43:12;;;;;;;1.60;1.20;;;28.90;99.30;;;;;;5074869;28;20199;-79
2021/07/30 10:45:40;;;;;;;1.33;1.23;;;29.20;98.20;;;;;;5075537;28;20228;-79
2021/07/30 10:48:35;;;;;;;1.80;0.93;;;29.40;99.10;;;;;;5074416;28;20699;-79
2021/07/30 10:51:17;;;;;;;0.98;0.98;;;29.40;97.60;;;;;;5074386;28;20220;-79
2021/07/30 10:53:49;;;;;;;1.17;0.88;;;28.90;96.80;;;;;;5072748;28;20210;-79
2021/07/30 10:56:44;;;;;;;0.77;0.63;;;28.40;98.10;;;;;;5074559;28;20606;-79
2021/07/30 10:59:11;;;;;;;1.00;0.90;;;27.80;98.90;;;;;;5050012;28;20207;-79
2021/07/30 11:02:00;;;;;;;1.02;0.90;;;27.30;99.90;;;;;;5074343;28;20229;-79
2021/07/30 11:04:28;;;;;;;1.38;1.13;;;26.90;99.00;;;;;;5073841;28;20194;-79
2021/07/30 11:06:59;;;;;;;3.17;1.45;;;26.90;99.90;;;;;;5074381;28;20197;-79
2021/07/30 11:09:27;;;;;;;1.60;1.05;;;27.00;99.90;;;;;;5074300;28;20242;-79
2021/07/30 11:11:57;;;;;;;0.95;0.95;;;26.80;99.90;;;;;;5074352;28;20230;-79
2021/07/30 11:14:25;;;;;;;0.80;0.80;;;26.60;99.90;;;;;;5074298;28;20189;-79
2021/07/30 11:16:54;;;;;;;1.13;1.00;;;26.50;99.90;;;;;;5074019;28;20186;-79
2021/07/30 11:19:23;;;;;;;0.88;0.70;;;26.40;99.90;;;;;;5073881;28;20189;-79
2021/07/30 11:21:50;;;;;;;1.17;1.08;;;26.20;99.90;;;;;;5074065;28;20671;-79
2021/07/30 11:24:17;;;;;;;0.95;0.88;;;26.20;99.90;;;;;;5074147;28;20186;-79
2021/07/30 11:26:45;;;;;;;0.95;0.95;;;26.40;99.90;;;;;;5074315;28;20194;-79
2021/07/30 11:29:15;;;;;;;1.30;1.10;;;26.30;99.90;;;;;;5073620;28;20677;-79
2021/07/30 11:31:53;;;;;;;1.70;1.10;;;26.30;99.90;;;;;;5073584;28;20218;-79
2021/07/30 11:34:21;;;;;;;1.38;0.98;;;26.20;99.90;;;;;;5073857;28;20193;-78
2021/07/30 11:36:49;;;;;;;1.38;1.27;;;26.20;99.90;;;;;;5073897;28;20225;-79
2021/07/30 11:39:16;;;;;;;1.48;1.10;;;26.20;99.90;;;;;;5073410;28;20257;-79
2021/07/30 11:41:52;;;;;;;0.82;0.80;;;26.10;99.90;;;;;;5073422;28;20721;-79
2021/07/30 11:44:21;;;;;;;1.25;1.10;;;26.00;99.90;;;;;;5073733;28;20269;-79
2021/07/30 11:46:57;;;;;;;1.10;1.00;;;26.00;99.90;;;;;;5073420;28;20214;-79
2021/07/30 11:49:33;;;;;;;1.10;0.70;;;26.20;99.90;;;;;;5073290;28;20213;-79
2021/07/30 11:52:02;;;;;;;1.00;0.95;;;26.20;99.90;;;;;;5073667;28;20193;-79
2021/07/30 11:54:29;;;;;;;1.73;0.90;;;26.20;99.90;;;;;;5073624;28;20210;-79
2021/07/30 11:56:57;;;;;;;3.60;1.70;;;26.50;99.90;;;;;;5073579;28;20218;-79
2021/07/30 11:59:25;;;;;;;1.00;0.93;;;26.60;99.90;;;;;;5073535;28;20195;-79
2021/07/30 12:02:03;;;;;;;1.20;0.85;;;26.50;99.90;;;;;;5072719;28;20720;-79
2021/07/30 12:04:31;;;;;;;0.98;0.90;;;26.50;99.90;;;;;;5073520;28;20182;-79
2021/07/30 12:07:01;;;;;;;1.15;1.15;;;26.40;99.90;;;;;;5075598;28;20202;-80
2021/07/30 12:09:31;;;;;;;1.50;1.10;;;26.40;99.90;;;;;;5072287;28;20371;-79
2021/07/30 12:12:00;;;;;;;1.02;0.90;;;26.30;99.90;;;;;;5072678;28;20213;-79
2021/07/30 12:14:30;;;;;;;0.95;0.93;;;26.30;99.90;;;;;;5073167;28;20198;-79
2021/07/30 12:16:58;;;;;;;1.73;1.00;;;26.30;99.90;;;;;;5072332;28;20638;-79
2021/07/30 12:19:29;;;;;;;1.50;1.10;;;26.30;99.90;;;;;;5073594;28;20198;-79
2021/07/30 12:21:56;;;;;;;2.50;1.30;;;26.20;99.90;;;;;;5072980;28;20198;-79
2021/07/30 12:24:23;;;;;;;2.88;1.10;;;26.00;99.90;;;;;;5073016;28;20198;-79
2021/07/30 12:26:50;;;;;;;1.63;0.90;;;26.00;99.90;;;;;;5072967;28;20665;-79
2021/07/30 12:29:40;;;;;;;1.98;1.08;;;25.80;99.90;;;;;;5072927;28;20622;-79
2021/07/30 12:32:11;;;;;;;0.88;0.77;;;25.70;99.90;;;;;;5073023;28;20540;-79
2021/07/30 12:34:38;;;;;;;0.82;0.82;;;25.70;99.90;;;;;;5072915;28;20554;-79
2021/07/30 12:37:08;;;;;;;0.98;0.80;;;25.60;99.90;;;;;;5073194;28;20205;-79
2021/07/30 12:39:44;;;;;;;1.60;1.38;;;25.60;99.90;;;;;;5072644;28;20284;-79
2021/07/30 12:42:20;;;;;;;1.65;1.13;;;25.60;99.90;;;;;;5073165;28;20244;-79
2021/07/30 12:45:02;;;;;;;1.35;1.25;;;25.50;99.90;;;;;;5072907;28;20183;-79
2021/07/30 12:47:29;;;;;;;1.10;1.00;;;25.50;99.90;;;;;;5073050;28;20213;-79
2021/07/30 12:49:56;;;;;;;1.30;0.98;;;25.40;99.90;;;;;;5072873;28;20701;-80
2021/07/30 12:52:23;;;;;;;1.77;1.35;;;25.40;99.90;;;;;;5073041;28;20202;-79
2021/07/30 12:54:51;;;;;;;1.20;1.10;;;25.40;99.90;;;;;;5072665;28;20552;-79
2021/07/30 12:57:20;;;;;;;1.40;1.30;;;25.40;99.90;;;;;;5072989;28;20205;-79